Terminal Aerodrome Forecast
Issued by NWS Tampa Bay Area, FL

Home | Current Version | Previous Version | Text Only | Print | Product List | Glossary On
Versions: 1 2 3 4 5 6 7 8 9 10 11 12 13 14 15 16 17 18 19 20 21 22 23 24 25
000
FTUS42 KTBW 012334
TAFTPA
TAF
KTPA 012334Z 0200/0224 29005KT P6SM FEW050 BKN250
     FM020200 VRB03KT P6SM FEW150 SCT250
     FM021500 22006KT P6SM FEW030 SCT150 SCT250
     FM021800 26008KT P6SM VCTS SCT040CB SCT250=

USA.gov is the U.S. government's official web portal to all federal, state and local government web resources and services.